BIIS

Ísafjörður Airport

Ísafjörður, Iceland
TAF BIIS 221624Z 2217/2302 05006KT 9999 SCT018 OVC030
Issued Valid From Valid To
Jul-22 @ 16:24 UTC
(4 hours ago)
Jul-22 @ 17:00 UTC
(3 hours ago)
Jul-23 @ 02:00 UTC
(in 6 hours)
Jul-22 @ 17:00 to Jul-23 @ 02:00
TAF BIIS 221624Z 2217/2302 05006KT 9999 SCT018 OVC030
Wind Visibility Clouds
50° at 6 knots 10,000+ meters
  • Scattered at 1,800' AGL
  • Overcast at 3,000' AGL
TAF BIIS 221624Z 2217/2302 05006KT 9999 SCT018 OVC030
Issued Jul-22 @ 16:24 UTC
(4 hours ago)
Valid From Jul-22 @ 17:00 UTC
(3 hours ago)
Valid To Jul-23 @ 02:00 UTC
(in 6 hours)
Jul-22 @ 17:00 - Jul-23 @ 02:00
Wind Visibility
50° at 6 knots 10,000+ meters
Clouds
  • Scattered at 1,800' AGL
  • Overcast at 3,000' AGL